Time;durP1;ratioP1;P1;durP2;ratioP2;P2;SDS_P1;SDS_P2;PMS_P1;PMS_P2;Temp;Humidity;BMP_temperature;BMP_pressure;BME280_temperature;BME280_humidity;BME280_pressure;Samples;Min_cycle;Max_cycle;Signal;HPM_P1;HPM_P2
2021/07/20 00:01:51;;;;;;;21.73;11.97;;;16.70;99.90;;;;;;5138679;27;20257;-69
2021/07/20 00:04:38;;;;;;;23.33;11.90;;;16.70;99.90;;;;;;5150898;27;20199;-68
2021/07/20 00:07:26;;;;;;;17.97;11.53;;;16.70;99.90;;;;;;5133874;27;20204;-68
2021/07/20 00:10:15;;;;;;;22.83;11.80;;;16.70;99.90;;;;;;5133518;27;20201;-69
2021/07/20 00:13:03;;;;;;;22.40;11.77;;;16.60;99.90;;;;;;5136301;27;20197;-68
2021/07/20 00:15:54;;;;;;;21.17;11.70;;;16.60;99.90;;;;;;5142072;27;20203;-69
2021/07/20 00:18:42;;;;;;;25.40;12.07;;;16.50;99.90;;;;;;5117720;27;20190;-70
2021/07/20 00:21:30;;;;;;;30.90;12.40;;;16.60;99.90;;;;;;5141034;27;20224;-69
2021/07/20 00:24:17;;;;;;;26.43;13.03;;;16.50;99.90;;;;;;5146748;27;20580;-68
2021/07/20 00:27:05;;;;;;;21.77;11.83;;;16.50;99.90;;;;;;5141422;27;20191;-68
2021/07/20 00:29:53;;;;;;;22.57;12.10;;;16.50;99.90;;;;;;5144021;27;20271;-68
2021/07/20 00:32:42;;;;;;;24.20;11.67;;;16.40;99.90;;;;;;5147663;27;20705;-68
2021/07/20 00:35:29;;;;;;;23.80;12.17;;;16.40;99.90;;;;;;5142467;27;20603;-68
2021/07/20 00:38:18;;;;;;;29.50;12.33;;;16.30;99.90;;;;;;5149770;27;20650;-68
2021/07/20 00:41:05;;;;;;;23.27;13.53;;;16.30;99.90;;;;;;5142660;27;20277;-68
2021/07/20 00:43:53;;;;;;;24.27;12.43;;;16.30;99.90;;;;;;5148354;27;20541;-68
2021/07/20 00:46:40;;;;;;;22.90;13.50;;;16.40;99.90;;;;;;5141606;27;20218;-68
2021/07/20 00:49:29;;;;;;;26.47;13.40;;;16.30;99.90;;;;;;5138501;27;20203;-69
2021/07/20 00:52:17;;;;;;;25.03;13.03;;;16.40;99.90;;;;;;5150085;27;20223;-69
2021/07/20 00:55:05;;;;;;;26.93;12.87;;;16.40;99.90;;;;;;5145440;27;20672;-69
2021/07/20 00:57:53;;;;;;;27.03;13.20;;;16.40;99.90;;;;;;5141574;27;20244;-68
2021/07/20 01:00:40;;;;;;;29.07;13.73;;;16.30;99.90;;;;;;5148877;27;20197;-69
2021/07/20 01:03:28;;;;;;;25.53;13.07;;;16.30;99.90;;;;;;5138895;27;20197;-69
2021/07/20 01:06:17;;;;;;;27.27;13.37;;;16.20;99.90;;;;;;5147921;27;20204;-69
2021/07/20 01:09:05;;;;;;;29.33;13.90;;;16.20;99.90;;;;;;5123778;27;20197;-69
2021/07/20 01:11:52;;;;;;;28.87;13.33;;;16.10;99.90;;;;;;5127985;27;20216;-69
2021/07/20 01:14:40;;;;;;;25.47;12.33;;;16.00;99.90;;;;;;5129524;27;20679;-69
2021/07/20 01:17:27;;;;;;;25.43;12.43;;;16.00;99.90;;;;;;5139280;27;20665;-69
2021/07/20 01:20:16;;;;;;;25.07;11.50;;;15.90;99.90;;;;;;5151937;27;20243;-69
2021/07/20 01:23:11;;;;;;;25.43;11.33;;;15.80;99.90;;;;;;5131007;27;20219;-69
2021/07/20 01:26:00;;;;;;;25.53;10.77;;;15.80;99.90;;;;;;5141032;27;20197;-69
2021/07/20 01:28:47;;;;;;;20.07;10.37;;;15.70;99.90;;;;;;5139350;27;20324;-68
2021/07/20 01:31:37;;;;;;;21.87;10.60;;;15.70;99.90;;;;;;5148648;27;20761;-69
2021/07/20 01:34:24;;;;;;;22.43;10.70;;;15.70;99.90;;;;;;5132897;27;20203;-69
2021/07/20 01:37:13;;;;;;;23.97;11.10;;;15.60;99.90;;;;;;5144634;27;20201;-68
2021/07/20 01:40:01;;;;;;;19.30;10.83;;;15.50;99.90;;;;;;5140910;27;20200;-68
2021/07/20 01:42:50;;;;;;;25.37;10.87;;;15.50;99.90;;;;;;5136340;27;20197;-69
2021/07/20 01:45:38;;;;;;;23.43;11.17;;;15.50;99.90;;;;;;5130669;27;20226;-69
2021/07/20 01:48:27;;;;;;;19.77;11.00;;;15.50;99.90;;;;;;5148944;27;20261;-69
2021/07/20 01:51:15;;;;;;;19.57;11.03;;;15.50;99.90;;;;;;5139518;27;20221;-69
2021/07/20 01:54:02;;;;;;;24.13;10.83;;;15.50;99.90;;;;;;5138738;27;20601;-69
2021/07/20 01:56:50;;;;;;;20.77;10.73;;;15.60;99.90;;;;;;5143248;27;20187;-69
2021/07/20 01:59:41;;;;;;;23.37;10.90;;;15.50;99.90;;;;;;5143545;27;20197;-69
2021/07/20 02:02:33;;;;;;;18.53;10.20;;;15.60;99.90;;;;;;5142665;27;20237;-69
2021/07/20 02:08:27;;;;;;;18.97;9.87;;;15.60;99.90;;;;;;5135056;27;20213;-69
2021/07/20 02:11:22;;;;;;;24.90;10.50;;;15.60;99.90;;;;;;5138807;27;20206;-69
2021/07/20 02:14:12;;;;;;;23.00;10.57;;;15.60;99.90;;;;;;5136724;27;20285;-69
2021/07/20 02:17:02;;;;;;;24.30;10.90;;;15.50;99.90;;;;;;5143692;27;20205;-69
2021/07/20 02:19:50;;;;;;;25.40;10.53;;;15.60;99.90;;;;;;5146993;27;20211;-69
2021/07/20 02:22:38;;;;;;;16.90;10.37;;;15.60;99.90;;;;;;5129728;27;20321;-69
2021/07/20 02:25:26;;;;;;;23.23;10.50;;;15.60;99.90;;;;;;5142422;27;20197;-69
2021/07/20 02:28:14;;;;;;;24.63;10.47;;;15.50;99.90;;;;;;5139577;27;20240;-69
2021/07/20 02:31:02;;;;;;;16.87;10.27;;;15.50;99.90;;;;;;5135470;27;20280;-68
2021/07/20 02:33:51;;;;;;;26.67;11.33;;;15.40;99.90;;;;;;5147234;27;20718;-69
2021/07/20 02:36:39;;;;;;;21.07;10.57;;;15.40;99.90;;;;;;5139868;27;20202;-69
2021/07/20 02:39:26;;;;;;;20.13;10.23;;;15.50;99.90;;;;;;5133506;27;20729;-69
2021/07/20 02:42:14;;;;;;;23.77;11.00;;;15.40;99.90;;;;;;5144373;27;20229;-69
2021/07/20 02:45:01;;;;;;;21.20;11.37;;;15.50;99.90;;;;;;5137908;27;20232;-69
2021/07/20 02:47:50;;;;;;;29.80;10.80;;;15.60;99.90;;;;;;5140811;27;20665;-69
2021/07/20 02:50:39;;;;;;;20.50;11.43;;;15.50;99.90;;;;;;5139264;27;20653;-69
2021/07/20 02:53:27;;;;;;;23.23;11.93;;;15.60;99.90;;;;;;5142728;27;20302;-69
2021/07/20 02:56:15;;;;;;;24.00;11.73;;;15.60;99.90;;;;;;5139525;27;20226;-68
2021/07/20 02:59:04;;;;;;;22.67;11.17;;;15.60;99.90;;;;;;5143590;27;20190;-68
2021/07/20 03:01:52;;;;;;;26.40;12.00;;;15.50;99.90;;;;;;5139388;27;20191;-68
2021/07/20 03:04:40;;;;;;;21.10;11.60;;;15.50;99.90;;;;;;5144801;27;20188;-68
2021/07/20 03:07:29;;;;;;;28.70;11.63;;;15.50;99.90;;;;;;5147988;27;20205;-68
2021/07/20 03:10:16;;;;;;;21.27;11.93;;;15.60;99.90;;;;;;5135034;27;20195;-68
2021/07/20 03:13:08;;;;;;;22.90;12.20;;;15.70;99.90;;;;;;5134065;27;20218;-68
2021/07/20 03:15:56;;;;;;;22.73;11.00;;;15.70;99.90;;;;;;5140140;27;20192;-69
2021/07/20 03:19:01;;;;;;;23.53;11.97;;;15.60;99.90;;;;;;5148351;27;20265;-69
2021/07/20 03:21:56;;;;;;;25.13;11.73;;;15.60;99.90;;;;;;5129973;28;20675;-68
2021/07/20 03:24:46;;;;;;;24.73;12.17;;;15.60;99.90;;;;;;5129570;27;20227;-69
2021/07/20 03:27:33;;;;;;;22.70;11.57;;;15.60;99.90;;;;;;5140830;27;20198;-68
2021/07/20 03:30:21;;;;;;;19.23;11.30;;;15.60;99.90;;;;;;5141440;27;20206;-69
2021/07/20 03:33:08;;;;;;;24.23;11.20;;;15.70;99.90;;;;;;5138956;27;20226;-69
2021/07/20 03:35:56;;;;;;;22.00;12.10;;;15.70;99.90;;;;;;5143148;27;20205;-69
2021/07/20 03:38:44;;;;;;;24.83;12.63;;;15.70;99.90;;;;;;5145328;27;20658;-68
2021/07/20 03:41:33;;;;;;;23.17;11.23;;;15.70;99.90;;;;;;5135473;27;20218;-69
2021/07/20 03:44:21;;;;;;;20.10;12.20;;;15.70;99.90;;;;;;5132614;27;20206;-68
2021/07/20 03:47:08;;;;;;;18.83;11.03;;;15.70;99.90;;;;;;5150406;27;20229;-68
2021/07/20 03:49:56;;;;;;;19.37;11.37;;;15.70;99.90;;;;;;5127784;27;20255;-68
2021/07/20 03:52:43;;;;;;;24.83;11.70;;;15.70;99.90;;;;;;5136478;27;20213;-68
2021/07/20 03:55:31;;;;;;;20.20;11.57;;;15.70;99.90;;;;;;5147956;27;20246;-68
2021/07/20 03:58:20;;;;;;;23.67;12.00;;;15.70;99.90;;;;;;5136752;27;20222;-68
2021/07/20 04:01:09;;;;;;;24.67;12.53;;;15.80;99.90;;;;;;5138828;27;20235;-69
2021/07/20 04:03:56;;;;;;;22.43;12.37;;;15.80;99.90;;;;;;5133854;27;20675;-68
2021/07/20 04:07:31;;;;;;;23.40;12.37;;;15.70;99.90;;;;;;5138814;27;20657;-69
2021/07/20 04:10:19;;;;;;;22.73;12.10;;;15.70;99.90;;;;;;5111781;28;20355;-68
2021/07/20 04:13:06;;;;;;;21.10;11.80;;;15.70;99.90;;;;;;5112942;28;20222;-68
2021/07/20 04:15:57;;;;;;;21.97;11.73;;;15.70;99.90;;;;;;5148855;27;20298;-69
2021/07/20 04:18:45;;;;;;;23.20;11.97;;;15.70;99.90;;;;;;5135951;27;20200;-69
2021/07/20 04:21:33;;;;;;;23.67;11.57;;;15.60;99.90;;;;;;5136395;27;20234;-68
2021/07/20 04:24:20;;;;;;;22.13;11.33;;;15.60;99.90;;;;;;5135454;27;20717;-68
2021/07/20 04:27:08;;;;;;;21.03;12.07;;;15.60;99.90;;;;;;5140513;27;20209;-68
2021/07/20 04:29:56;;;;;;;23.20;11.37;;;15.60;99.90;;;;;;5142818;27;20215;-69
2021/07/20 04:32:46;;;;;;;27.63;11.90;;;15.60;99.90;;;;;;5139705;27;20213;-68
2021/07/20 04:35:34;;;;;;;21.07;12.00;;;15.60;99.90;;;;;;5140921;27;20201;-68
2021/07/20 04:38:21;;;;;;;20.97;11.73;;;15.60;99.90;;;;;;5136682;27;20206;-68
2021/07/20 04:41:09;;;;;;;22.83;12.50;;;15.70;99.90;;;;;;5147156;27;20207;-68
2021/07/20 04:43:57;;;;;;;22.37;11.87;;;15.70;99.90;;;;;;5136875;27;20202;-69
2021/07/20 04:46:46;;;;;;;24.00;11.73;;;15.70;99.90;;;;;;5149840;27;20226;-69
2021/07/20 04:49:38;;;;;;;26.10;12.17;;;15.80;99.90;;;;;;5133473;27;20199;-68
2021/07/20 04:52:25;;;;;;;24.50;11.97;;;15.80;99.90;;;;;;5151963;27;20583;-68
2021/07/20 04:55:14;;;;;;;23.33;12.27;;;15.80;99.90;;;;;;5149723;27;20212;-69
2021/07/20 04:58:02;;;;;;;19.13;11.40;;;15.70;99.90;;;;;;5137171;27;20199;-69
2021/07/20 05:00:50;;;;;;;20.93;11.63;;;15.70;99.90;;;;;;5148574;27;20206;-69
2021/07/20 05:03:39;;;;;;;27.30;11.50;;;15.70;99.90;;;;;;5141310;27;20275;-69
2021/07/20 05:06:29;;;;;;;20.87;12.10;;;15.60;99.90;;;;;;5148099;27;20200;-69
2021/07/20 05:09:16;;;;;;;21.57;12.67;;;15.60;99.90;;;;;;5152134;27;20207;-69
2021/07/20 05:12:05;;;;;;;23.43;11.60;;;15.50;99.90;;;;;;5129448;27;20235;-69
2021/07/20 05:14:53;;;;;;;20.13;10.97;;;15.60;99.90;;;;;;5147713;27;20594;-69
2021/07/20 05:17:40;;;;;;;23.30;11.83;;;15.60;99.90;;;;;;5146375;27;20194;-69
2021/07/20 05:20:28;;;;;;;19.93;11.33;;;15.70;99.90;;;;;;5145736;27;20233;-69
2021/07/20 05:23:19;;;;;;;20.20;11.70;;;15.70;99.90;;;;;;5133417;27;20206;-69
2021/07/20 05:26:07;;;;;;;25.73;12.00;;;15.80;99.90;;;;;;5132997;27;20222;-69
2021/07/20 05:28:55;;;;;;;21.43;12.10;;;15.70;99.90;;;;;;5127403;27;20598;-69
2021/07/20 05:31:43;;;;;;;26.57;12.67;;;15.80;99.90;;;;;;5127671;27;20197;-69
2021/07/20 05:34:30;;;;;;;22.37;12.13;;;15.80;99.90;;;;;;5141688;27;20195;-69
2021/07/20 05:37:19;;;;;;;24.03;12.27;;;15.80;99.90;;;;;;5148224;27;20223;-69
2021/07/20 05:40:10;;;;;;;23.80;11.90;;;15.80;99.90;;;;;;5148944;27;20647;-69
2021/07/20 05:42:58;;;;;;;23.90;12.73;;;15.80;99.90;;;;;;5142090;27;21395;-69
2021/07/20 05:45:45;;;;;;;25.93;12.47;;;15.90;99.90;;;;;;5133675;27;20249;-69
2021/07/20 05:48:33;;;;;;;23.03;11.90;;;15.90;99.90;;;;;;5143643;27;20202;-69
2021/07/20 05:51:20;;;;;;;24.33;11.83;;;16.00;99.90;;;;;;5138076;27;21013;-69
2021/07/20 05:54:08;;;;;;;22.20;12.07;;;15.90;99.90;;;;;;5133682;27;20219;-69
2021/07/20 05:56:57;;;;;;;23.30;12.30;;;16.00;99.90;;;;;;5139123;27;20205;-69
2021/07/20 05:59:45;;;;;;;20.97;12.33;;;16.10;99.90;;;;;;5135176;27;20194;-69
2021/07/20 06:02:32;;;;;;;25.07;12.60;;;16.10;99.90;;;;;;5141167;27;20191;-69
2021/07/20 06:05:21;;;;;;;19.53;11.43;;;16.20;99.90;;;;;;5145755;27;20608;-69
2021/07/20 06:08:08;;;;;;;30.40;13.07;;;16.10;99.90;;;;;;5145739;27;20207;-69
2021/07/20 06:10:57;;;;;;;23.93;12.37;;;16.10;99.90;;;;;;5138757;27;20192;-69
2021/07/20 06:13:46;;;;;;;23.33;12.70;;;16.10;99.90;;;;;;5128611;27;20701;-69
2021/07/20 06:16:34;;;;;;;23.73;11.63;;;16.20;99.90;;;;;;5133523;27;20583;-69
2021/07/20 06:19:21;;;;;;;22.53;12.23;;;16.20;99.90;;;;;;5136768;27;20209;-69
2021/07/20 06:22:10;;;;;;;23.53;12.43;;;16.30;99.90;;;;;;5133035;27;20235;-69
2021/07/20 06:24:57;;;;;;;24.13;12.67;;;16.20;99.90;;;;;;5138514;27;20235;-69
2021/07/20 06:27:45;;;;;;;26.53;12.27;;;16.20;99.90;;;;;;5152302;27;20198;-69
2021/07/20 06:30:34;;;;;;;26.67;12.50;;;16.00;99.90;;;;;;5151125;27;20211;-69
2021/07/20 06:33:22;;;;;;;23.67;12.10;;;16.00;99.90;;;;;;5133294;27;20685;-69
2021/07/20 06:36:09;;;;;;;24.00;13.00;;;16.10;99.90;;;;;;5130245;27;20213;-69
2021/07/20 06:38:57;;;;;;;27.23;12.77;;;16.20;99.90;;;;;;5140255;27;20215;-69
2021/07/20 06:41:44;;;;;;;24.90;12.17;;;16.40;99.90;;;;;;5132383;27;20190;-68
2021/07/20 06:44:32;;;;;;;26.50;12.73;;;16.40;99.90;;;;;;5135766;27;20569;-69
2021/07/20 06:47:21;;;;;;;24.93;12.60;;;16.60;99.90;;;;;;5135919;27;20216;-69
2021/07/20 06:50:10;;;;;;;23.27;12.47;;;16.60;99.90;;;;;;5140731;27;20573;-68
2021/07/20 06:52:58;;;;;;;21.30;11.53;;;16.70;99.90;;;;;;5126520;27;20676;-69
2021/07/20 06:55:47;;;;;;;26.73;12.07;;;16.60;99.90;;;;;;5122063;27;20196;-69
2021/07/20 06:58:35;;;;;;;26.33;13.03;;;16.70;99.90;;;;;;5141112;27;20560;-68
2021/07/20 07:01:22;;;;;;;26.00;12.10;;;16.70;99.90;;;;;;5144771;27;20210;-68
2021/07/20 07:04:14;;;;;;;23.40;11.60;;;16.70;99.90;;;;;;5132802;27;20670;-68
2021/07/20 07:07:02;;;;;;;23.33;12.30;;;16.70;99.90;;;;;;5127978;27;20193;-68
2021/07/20 07:09:50;;;;;;;23.87;12.20;;;16.70;99.90;;;;;;5138406;27;20192;-68
2021/07/20 07:12:38;;;;;;;24.07;12.13;;;16.80;99.90;;;;;;5136510;27;20210;-68
2021/07/20 07:15:26;;;;;;;25.00;11.50;;;16.80;99.90;;;;;;5142038;27;20197;-68
2021/07/20 07:18:13;;;;;;;24.40;11.90;;;16.90;99.90;;;;;;5137375;27;20287;-68
2021/07/20 07:21:03;;;;;;;21.27;11.87;;;17.00;99.90;;;;;;5149755;27;20232;-68
2021/07/20 07:23:52;;;;;;;22.60;11.60;;;17.00;99.90;;;;;;5137637;27;20333;-68
2021/07/20 07:26:39;;;;;;;23.53;12.07;;;17.10;99.90;;;;;;5147843;27;20201;-68
2021/07/20 07:29:27;;;;;;;23.30;12.47;;;17.30;99.90;;;;;;5147375;27;20569;-68
2021/07/20 07:32:15;;;;;;;22.47;11.83;;;17.40;99.90;;;;;;5144445;27;20203;-68
2021/07/20 07:35:02;;;;;;;23.83;11.77;;;17.50;99.90;;;;;;5142922;27;20200;-68
2021/07/20 07:37:52;;;;;;;26.47;12.60;;;17.60;99.90;;;;;;5150238;27;20199;-68
2021/07/20 07:40:39;;;;;;;24.77;11.43;;;17.50;99.90;;;;;;5129468;27;20202;-68
2021/07/20 07:43:28;;;;;;;23.87;11.63;;;17.60;99.90;;;;;;5139911;27;20197;-68
2021/07/20 07:46:16;;;;;;;20.73;12.33;;;17.60;99.90;;;;;;5151219;27;20225;-68
2021/07/20 07:49:03;;;;;;;23.17;11.73;;;17.70;99.90;;;;;;5136494;27;20336;-68
2021/07/20 07:51:52;;;;;;;28.10;12.43;;;17.60;99.90;;;;;;5144450;27;20674;-68
2021/07/20 07:54:41;;;;;;;23.00;12.63;;;17.70;99.90;;;;;;5146428;27;20657;-68
2021/07/20 07:57:29;;;;;;;22.13;11.77;;;17.70;99.90;;;;;;5136684;27;20202;-68
2021/07/20 08:00:17;;;;;;;29.90;12.70;;;17.80;99.90;;;;;;5132968;27;20270;-68
2021/07/20 08:03:05;;;;;;;21.93;12.70;;;17.90;99.90;;;;;;5145704;27;20194;-68
2021/07/20 08:05:52;;;;;;;22.50;12.17;;;17.90;99.90;;;;;;5143991;27;20196;-68
2021/07/20 08:08:40;;;;;;;24.97;11.80;;;17.90;99.90;;;;;;5152248;27;20653;-68
2021/07/20 08:11:29;;;;;;;22.57;12.90;;;17.90;99.90;;;;;;5148164;27;20203;-68
2021/07/20 08:14:17;;;;;;;26.90;13.00;;;17.90;99.90;;;;;;5128068;27;20223;-68
2021/07/20 08:17:04;;;;;;;28.20;12.50;;;17.90;99.90;;;;;;5142564;27;20230;-68
2021/07/20 08:19:53;;;;;;;32.67;12.43;;;17.90;99.90;;;;;;5151601;27;20200;-67
2021/07/20 08:22:41;;;;;;;30.13;12.70;;;17.80;99.90;;;;;;5141270;27;20683;-68
2021/07/20 08:25:30;;;;;;;24.57;13.07;;;17.80;99.90;;;;;;5150511;27;20209;-68
2021/07/20 08:28:21;;;;;;;33.23;12.80;;;18.00;99.90;;;;;;5138802;27;20202;-68
2021/07/20 08:31:09;;;;;;;25.17;13.33;;;18.00;99.90;;;;;;5135432;27;20203;-68
2021/07/20 08:33:59;;;;;;;27.30;12.43;;;18.00;99.90;;;;;;5138981;27;20577;-68
2021/07/20 08:36:46;;;;;;;27.27;12.70;;;18.00;99.90;;;;;;5133715;27;20680;-68
2021/07/20 08:39:34;;;;;;;26.20;13.40;;;18.00;99.90;;;;;;5147410;27;20275;-68
2021/07/20 08:42:33;;;;;;;28.33;13.07;;;18.10;99.90;;;;;;5139225;27;20272;-68
2021/07/20 08:45:24;;;;;;;25.83;13.47;;;18.00;99.90;;;;;;5140417;27;20217;-68
2021/07/20 08:48:18;;;;;;;27.97;13.47;;;18.00;99.90;;;;;;5143830;27;20567;-68
2021/07/20 08:51:06;;;;;;;25.93;13.97;;;18.00;99.90;;;;;;5137839;27;20655;-68
2021/07/20 08:53:57;;;;;;;26.37;13.03;;;18.00;99.90;;;;;;5135373;27;20234;-69
2021/07/20 08:56:45;;;;;;;29.60;13.30;;;17.90;99.90;;;;;;5129777;27;20199;-68
2021/07/20 08:59:39;;;;;;;25.80;13.03;;;17.90;99.90;;;;;;5142844;27;20205;-68
2021/07/20 09:02:36;;;;;;;26.60;13.60;;;18.00;99.90;;;;;;5138501;27;20782;-68
2021/07/20 09:05:27;;;;;;;25.03;13.93;;;18.00;99.90;;;;;;5138429;27;20563;-68
2021/07/20 09:08:17;;;;;;;29.03;13.60;;;18.10;99.90;;;;;;5135776;27;20197;-68
2021/07/20 09:11:11;;;;;;;26.93;13.90;;;18.10;99.90;;;;;;5144954;27;20896;-68
2021/07/20 09:14:07;;;;;;;23.20;13.90;;;18.10;99.90;;;;;;5132303;27;20298;-68
2021/07/20 09:16:56;;;;;;;25.23;13.67;;;18.10;99.90;;;;;;5142418;27;20207;-68
2021/07/20 09:19:50;;;;;;;27.37;13.13;;;18.20;99.90;;;;;;5148674;27;20743;-69
2021/07/20 09:22:39;;;;;;;27.20;14.50;;;18.20;99.90;;;;;;5130232;27;20205;-69
2021/07/20 09:25:32;;;;;;;33.07;13.77;;;18.20;99.90;;;;;;5135301;27;20206;-68
2021/07/20 09:28:27;;;;;;;30.73;14.77;;;18.20;99.90;;;;;;5136958;27;20254;-68
2021/07/20 09:31:21;;;;;;;24.47;13.77;;;18.20;99.90;;;;;;5141045;27;20200;-68
2021/07/20 09:34:13;;;;;;;30.70;13.97;;;18.40;99.90;;;;;;5145498;27;20577;-68
2021/07/20 09:37:04;;;;;;;25.53;12.80;;;18.60;99.90;;;;;;5140193;27;20233;-68
2021/07/20 09:39:59;;;;;;;25.03;13.40;;;18.70;99.90;;;;;;5129583;27;20669;-68
2021/07/20 09:42:55;;;;;;;26.47;13.43;;;18.90;99.90;;;;;;5140141;27;20200;-69
2021/07/20 09:45:45;;;;;;;26.67;12.73;;;19.20;99.90;;;;;;5145886;27;20216;-69
2021/07/20 09:48:37;;;;;;;21.27;11.97;;;19.30;99.90;;;;;;5127096;27;20291;-69
2021/07/20 09:52:09;;;;;;;23.93;12.00;;;19.20;99.90;;;;;;5142742;27;20200;-69
2021/07/20 09:55:35;;;;;;;25.00;12.60;;;19.10;99.90;;;;;;5013482;28;20218;-69
2021/07/20 09:58:29;;;;;;;23.40;12.30;;;19.30;99.90;;;;;;4979157;28;20301;-69
2021/07/20 10:01:18;;;;;;;25.10;12.03;;;19.30;99.90;;;;;;4978916;28;20263;-69
2021/07/20 10:04:12;;;;;;;23.10;12.17;;;19.50;99.90;;;;;;4973105;28;20678;-70
2021/07/20 10:07:02;;;;;;;19.23;11.40;;;19.80;99.90;;;;;;4978846;28;20234;-69
2021/07/20 10:09:53;;;;;;;20.90;12.33;;;20.30;99.90;;;;;;4978882;28;20200;-70
2021/07/20 10:12:51;;;;;;;32.07;15.17;;;20.50;99.90;;;;;;4970028;28;20214;-69
2021/07/20 10:15:49;;;;;;;19.80;10.80;;;20.80;99.90;;;;;;4971481;28;20325;-70
2021/07/20 10:18:43;;;;;;;20.07;10.07;;;21.10;99.90;;;;;;4956999;28;20252;-69
2021/07/20 10:21:31;;;;;;;20.87;11.10;;;21.30;99.90;;;;;;4979332;28;20645;-70
2021/07/20 10:24:21;;;;;;;25.00;10.57;;;21.70;99.90;;;;;;4974398;28;20203;-70
2021/07/20 10:27:15;;;;;;;22.47;11.07;;;22.10;99.90;;;;;;4986897;28;20270;-70
2021/07/20 10:30:06;;;;;;;22.10;10.80;;;22.20;99.90;;;;;;5078759;27;20198;-70
2021/07/20 10:32:59;;;;;;;21.10;11.27;;;22.10;99.90;;;;;;5132822;27;20331;-69
2021/07/20 10:35:50;;;;;;;21.23;10.17;;;21.90;99.90;;;;;;5131837;27;20193;-69
2021/07/20 10:38:40;;;;;;;19.63;11.03;;;21.80;99.90;;;;;;5143708;27;20228;-70
2021/07/20 10:41:31;;;;;;;22.03;10.37;;;21.80;99.90;;;;;;5140099;27;20206;-70
2021/07/20 10:44:24;;;;;;;19.80;10.50;;;21.80;99.90;;;;;;5142171;27;20195;-70
2021/07/20 10:47:12;;;;;;;21.50;9.90;;;21.70;99.90;;;;;;5129978;27;20291;-70
2021/07/20 10:50:01;;;;;;;19.37;9.30;;;22.00;99.90;;;;;;5141529;27;20203;-70
2021/07/20 10:52:58;;;;;;;15.83;9.20;;;22.70;99.90;;;;;;5144904;27;20255;-69
2021/07/20 10:55:53;;;;;;;16.63;9.67;;;22.60;99.90;;;;;;5142949;27;20217;-68
2021/07/20 10:58:48;;;;;;;16.30;8.87;;;22.40;99.90;;;;;;5138395;27;20202;-69
2021/07/20 11:01:43;;;;;;;21.13;9.30;;;22.80;99.90;;;;;;5138064;27;20243;-68
2021/07/20 11:04:36;;;;;;;18.67;9.00;;;23.70;99.90;;;;;;5129782;27;20195;-69
2021/07/20 11:07:26;;;;;;;19.20;8.90;;;24.50;99.90;;;;;;5130217;27;20216;-69
2021/07/20 11:10:15;;;;;;;17.27;8.93;;;24.20;99.90;;;;;;5129508;27;20277;-68
2021/07/20 11:13:05;;;;;;;13.87;8.60;;;23.70;99.90;;;;;;5130086;28;20669;-69
2021/07/20 11:15:54;;;;;;;16.90;9.27;;;23.30;99.90;;;;;;5129943;27;20642;-68
2021/07/20 11:18:43;;;;;;;14.40;8.27;;;23.60;99.90;;;;;;5137366;27;20194;-69
2021/07/20 11:21:31;;;;;;;18.37;8.87;;;24.10;99.90;;;;;;5130956;27;20222;-69
2021/07/20 11:24:18;;;;;;;14.67;8.40;;;24.90;99.90;;;;;;5138978;27;20208;-69
2021/07/20 11:27:06;;;;;;;13.55;7.97;;;25.50;99.90;;;;;;5130183;27;20190;-69
2021/07/20 11:29:54;;;;;;;11.85;6.82;;;25.40;99.90;;;;;;5121653;27;20201;-69
2021/07/20 11:32:43;;;;;;;13.40;6.72;;;25.60;99.90;;;;;;5143161;27;20272;-69
2021/07/20 11:35:35;;;;;;;18.20;7.50;;;26.10;99.90;;;;;;5130485;27;20229;-69
2021/07/20 11:38:24;;;;;;;13.45;6.70;;;26.30;99.90;;;;;;5137418;27;20197;-69
2021/07/20 11:41:16;;;;;;;13.35;6.80;;;26.00;99.90;;;;;;5136608;27;20209;-71
2021/07/20 11:44:10;;;;;;;13.93;6.82;;;25.70;99.90;;;;;;5139755;27;20209;-70
2021/07/20 11:46:59;;;;;;;16.02;6.93;;;25.70;99.90;;;;;;5125526;27;20217;-66
2021/07/20 11:49:56;;;;;;;12.40;6.78;;;26.10;99.90;;;;;;5131896;27;20284;-66
2021/07/20 11:52:54;;;;;;;12.18;6.28;;;26.50;99.90;;;;;;5129406;27;20209;-66
2021/07/20 11:55:46;;;;;;;13.15;7.40;;;26.70;99.90;;;;;;5133444;27;20218;-66
2021/07/20 11:59:31;;;;;;;11.90;7.32;;;27.10;99.90;;;;;;5128277;27;20193;-66
2021/07/20 12:02:52;;;;;;;15.18;6.47;;;27.40;99.90;;;;;;5055648;28;20212;-65
2021/07/20 12:06:24;;;;;;;12.02;6.60;;;26.80;99.90;;;;;;5055830;28;20207;-65
2021/07/20 12:09:28;;;;;;;14.27;6.22;;;26.90;99.90;;;;;;5051297;28;20205;-66
2021/07/20 12:12:16;;;;;;;20.27;5.60;;;26.50;99.90;;;;;;5061276;28;20204;-65
2021/07/20 12:15:04;;;;;;;13.93;5.45;;;26.80;99.90;;;;;;5064681;28;20265;-66
2021/07/20 12:17:52;;;;;;;10.98;5.78;;;26.90;99.90;;;;;;5056155;28;20200;-66
2021/07/20 12:20:41;;;;;;;8.98;5.72;;;26.90;99.90;;;;;;5060235;28;20603;-65
2021/07/20 12:23:29;;;;;;;14.40;6.00;;;26.40;99.90;;;;;;5062695;28;20204;-66
2021/07/20 12:26:19;;;;;;;10.73;5.95;;;25.80;99.90;;;;;;5048438;28;20294;-66
2021/07/20 12:29:08;;;;;;;12.60;6.28;;;25.20;99.90;;;;;;5048622;28;20209;-65
2021/07/20 12:31:56;;;;;;;10.68;5.82;;;24.80;99.90;;;;;;5050234;28;20198;-65
2021/07/20 12:34:48;;;;;;;11.50;5.95;;;24.30;99.90;;;;;;5049633;28;20731;-66
2021/07/20 12:37:40;;;;;;;11.18;6.32;;;24.20;99.90;;;;;;5083555;27;20559;-65
2021/07/20 12:40:37;;;;;;;13.02;6.15;;;24.20;99.90;;;;;;5132663;27;20202;-66
2021/07/20 12:43:33;;;;;;;10.05;6.20;;;24.40;99.90;;;;;;5132292;27;20193;-65
2021/07/20 12:46:24;;;;;;;14.25;5.72;;;24.30;99.90;;;;;;5132372;27;20768;-65
2021/07/20 12:49:17;;;;;;;11.13;5.43;;;24.50;99.90;;;;;;5132951;27;20199;-66
2021/07/20 12:52:09;;;;;;;11.40;5.53;;;24.60;99.90;;;;;;5132486;27;20206;-66
2021/07/20 12:55:04;;;;;;;12.98;6.60;;;24.70;99.90;;;;;;5132289;27;20214;-65
2021/07/20 12:57:54;;;;;;;11.35;6.40;;;24.40;99.90;;;;;;5131993;27;20191;-65
2021/07/20 13:00:50;;;;;;;11.77;6.90;;;24.30;99.90;;;;;;5132566;27;20207;-66
2021/07/20 13:03:38;;;;;;;15.15;7.68;;;24.00;99.90;;;;;;5131998;27;20202;-65
2021/07/20 13:06:25;;;;;;;14.43;7.23;;;23.50;99.90;;;;;;5131928;27;20198;-66
2021/07/20 13:09:13;;;;;;;14.03;7.37;;;23.30;99.90;;;;;;5131561;27;20191;-65
2021/07/20 13:12:00;;;;;;;11.80;7.17;;;23.00;99.90;;;;;;5130246;27;20295;-65
2021/07/20 13:14:48;;;;;;;14.20;7.87;;;22.50;99.90;;;;;;5133171;27;20582;-65
2021/07/20 13:17:38;;;;;;;15.80;7.83;;;22.00;99.90;;;;;;5132716;27;20271;-65
2021/07/20 13:20:27;;;;;;;14.80;7.50;;;21.80;99.90;;;;;;5131319;27;20595;-66
2021/07/20 13:23:14;;;;;;;19.03;9.07;;;21.60;99.90;;;;;;5132259;27;20213;-66
2021/07/20 13:26:02;;;;;;;19.57;8.60;;;20.80;99.90;;;;;;5132062;27;20195;-65
2021/07/20 13:28:54;;;;;;;18.33;8.77;;;20.20;99.90;;;;;;5131793;27;20666;-65
2021/07/20 13:31:49;;;;;;;17.03;9.40;;;19.70;99.90;;;;;;5131168;27;20205;-64
2021/07/20 13:34:38;;;;;;;20.47;10.03;;;19.30;99.90;;;;;;5131477;27;20216;-65
2021/07/20 13:37:26;;;;;;;19.37;9.60;;;18.70;99.90;;;;;;5131794;27;20308;-65
2021/07/20 13:40:15;;;;;;;17.63;9.67;;;18.20;99.90;;;;;;5131627;27;20203;-65
2021/07/20 13:43:03;;;;;;;18.03;9.40;;;17.80;99.90;;;;;;5131482;27;20559;-65
2021/07/20 13:45:51;;;;;;;18.03;9.47;;;17.60;99.90;;;;;;5131817;27;20301;-65
2021/07/20 13:48:42;;;;;;;15.97;9.07;;;17.50;99.90;;;;;;5131545;27;20326;-65
2021/07/20 13:51:34;;;;;;;18.83;9.13;;;17.40;99.90;;;;;;5131417;27;20255;-65
2021/07/20 13:54:23;;;;;;;15.47;8.60;;;17.50;99.90;;;;;;5131889;27;20269;-65
2021/07/20 13:57:11;;;;;;;16.43;8.77;;;17.30;99.90;;;;;;5132714;27;20206;-65
2021/07/20 14:00:00;;;;;;;18.43;9.70;;;17.30;99.90;;;;;;5132281;27;20196;-65
2021/07/20 14:02:54;;;;;;;22.90;10.63;;;17.30;99.90;;;;;;5132528;27;20197;-65
2021/07/20 14:05:45;;;;;;;20.63;10.77;;;17.30;99.90;;;;;;5131963;27;20204;-65
2021/07/20 14:08:40;;;;;;;18.13;10.53;;;17.50;99.90;;;;;;5131615;27;20210;-65
2021/07/20 14:11:32;;;;;;;20.43;10.57;;;17.50;99.90;;;;;;5131397;27;20209;-64
2021/07/20 14:14:24;;;;;;;17.90;9.93;;;17.40;99.90;;;;;;5131313;27;20202;-65
2021/07/20 14:17:21;;;;;;;18.67;10.57;;;17.40;99.90;;;;;;5131215;27;20202;-65
2021/07/20 14:20:20;;;;;;;21.33;9.57;;;17.40;99.90;;;;;;5130904;27;20236;-65
2021/07/20 14:23:08;;;;;;;16.87;9.23;;;17.30;99.90;;;;;;5130353;27;20211;-65
2021/07/20 14:25:59;;;;;;;18.57;10.07;;;17.30;99.90;;;;;;5131071;27;20253;-65
2021/07/20 14:28:47;;;;;;;16.40;10.37;;;17.20;99.90;;;;;;5131390;27;20335;-65